createdAt,value
2022-11-27T00:00:30.303Z,30.53
2022-11-27T00:03:02.176Z,29.37
2022-11-27T00:05:34.124Z,30.13
2022-11-27T00:08:05.907Z,21.57
2022-11-27T00:10:37.711Z,25.63
2022-11-27T00:13:09.378Z,24.77
2022-11-27T00:15:41.219Z,21.20
2022-11-27T00:18:13.215Z,25.55
2022-11-27T00:20:44.937Z,20.27
2022-11-27T00:23:16.660Z,25.40
2022-11-27T00:25:52.451Z,24.50
2022-11-27T00:28:24.169Z,18.63
2022-11-27T00:31:05.888Z,21.07
2022-11-27T00:33:37.725Z,26.93
2022-11-27T00:36:10.337Z,25.13
2022-11-27T00:38:42.373Z,21.17
2022-11-27T00:41:21.526Z,20.00
2022-11-27T00:43:54.128Z,22.63
2022-11-27T00:46:29.473Z,23.30
2022-11-27T00:49:03.730Z,20.13
2022-11-27T00:51:35.960Z,20.70
2022-11-27T00:54:08.314Z,23.90
2022-11-27T00:56:40.476Z,22.10
2022-11-27T00:59:12.232Z,27.57
2022-11-27T01:01:44.616Z,26.27
2022-11-27T01:04:17.079Z,25.60
2022-11-27T01:06:48.852Z,23.10
2022-11-27T01:09:20.584Z,21.13
2022-11-27T01:11:52.314Z,21.80
2022-11-27T01:14:23.991Z,23.17
2022-11-27T01:16:55.777Z,17.73
2022-11-27T01:19:27.473Z,26.43
2022-11-27T01:21:59.147Z,21.57
2022-11-27T01:24:30.886Z,24.47
2022-11-27T01:27:02.558Z,23.87
2022-11-27T01:29:34.265Z,23.13
2022-11-27T01:32:06.040Z,23.20
2022-11-27T01:34:38.327Z,25.57
2022-11-27T01:37:10.272Z,22.70
2022-11-27T01:39:41.937Z,22.40
2022-11-27T01:42:13.715Z,20.70
2022-11-27T01:44:51.905Z,21.40
2022-11-27T01:47:46.537Z,21.67
2022-11-27T01:50:33.324Z,17.43
2022-11-27T01:53:19.269Z,19.60
2022-11-27T01:55:58.543Z,15.33
2022-11-27T01:58:31.414Z,15.80
2022-11-27T02:01:04.644Z,22.27
2022-11-27T02:03:36.797Z,20.27
2022-11-27T02:06:12.481Z,18.27
2022-11-27T02:08:44.517Z,13.73
2022-11-27T02:11:28.374Z,15.70
2022-11-27T02:14:12.564Z,13.70
2022-11-27T02:17:02.632Z,14.13
2022-11-27T02:20:11.971Z,12.97
2022-11-27T02:23:12.403Z,17.50
2022-11-27T02:26:09.430Z,19.23
2022-11-27T02:28:59.711Z,18.60
2022-11-27T02:31:38.223Z,18.47
2022-11-27T02:34:29.244Z,18.47
2022-11-27T02:37:05.518Z,14.80
2022-11-27T02:39:53.061Z,13.53
2022-11-27T02:42:29.000Z,15.13
2022-11-27T02:45:09.632Z,19.63
2022-11-27T02:47:44.786Z,16.40
2022-11-27T02:50:20.787Z,16.50
2022-11-27T02:52:57.751Z,15.07
2022-11-27T02:55:33.938Z,16.50
2022-11-27T02:58:12.601Z,17.07
2022-11-27T03:00:46.427Z,15.33
2022-11-27T03:03:22.393Z,15.93
2022-11-27T03:05:59.507Z,18.10
2022-11-27T03:08:41.974Z,15.00
2022-11-27T03:11:16.061Z,16.87
2022-11-27T03:13:53.733Z,13.27
2022-11-27T03:17:00.354Z,15.13
2022-11-27T03:19:56.271Z,14.80
2022-11-27T03:22:28.312Z,10.90
2022-11-27T03:25:00.191Z,13.30
2022-11-27T03:27:44.567Z,14.30
2022-11-27T03:30:16.762Z,14.00
2022-11-27T03:32:48.558Z,13.40
2022-11-27T03:35:23.652Z,12.60
2022-11-27T03:37:56.318Z,18.80
2022-11-27T03:40:35.212Z,22.00
2022-11-27T03:43:24.247Z,24.80
2022-11-27T03:46:06.730Z,16.50
2022-11-27T03:48:48.858Z,20.20
2022-11-27T03:51:41.571Z,16.03
2022-11-27T03:54:47.354Z,15.50
2022-11-27T03:57:40.786Z,17.67
2022-11-27T04:00:13.117Z,11.90
2022-11-27T04:02:51.245Z,10.40
2022-11-27T04:05:23.122Z,12.40
2022-11-27T04:07:54.870Z,19.87
2022-11-27T04:10:26.588Z,16.33
2022-11-27T04:12:58.347Z,17.33
2022-11-27T04:15:30.030Z,15.20
2022-11-27T04:18:01.785Z,9.37
2022-11-27T04:20:33.873Z,12.43
2022-11-27T04:23:05.821Z,15.27
2022-11-27T04:25:37.586Z,11.97
2022-11-27T04:28:09.418Z,14.63
2022-11-27T04:30:41.117Z,15.07
2022-11-27T04:33:12.829Z,9.47
2022-11-27T04:35:44.604Z,11.30
2022-11-27T04:38:16.475Z,10.77
2022-11-27T04:40:48.431Z,11.33
2022-11-27T04:43:20.630Z,10.17
2022-11-27T04:45:52.401Z,8.00
2022-11-27T04:48:24.061Z,9.80
2022-11-27T04:50:56.031Z,8.13
2022-11-27T04:53:27.942Z,8.33
2022-11-27T04:56:00.035Z,13.33
2022-11-27T04:58:31.793Z,10.43
2022-11-27T05:01:03.584Z,18.20
2022-11-27T05:03:36.072Z,10.70
2022-11-27T05:06:07.831Z,10.17
2022-11-27T05:08:39.661Z,9.97
2022-11-27T05:11:13.897Z,10.73
2022-11-27T05:13:45.609Z,9.60
2022-11-27T05:16:17.396Z,11.00
2022-11-27T05:18:49.219Z,11.80
2022-11-27T05:21:20.979Z,7.83
2022-11-27T05:23:52.739Z,9.10
2022-11-27T05:26:24.380Z,11.53
2022-11-27T05:28:56.082Z,8.50
2022-11-27T05:31:28.242Z,8.53
2022-11-27T05:34:00.103Z,11.87
2022-11-27T05:36:32.991Z,12.87
2022-11-27T05:39:09.006Z,15.50
2022-11-27T05:41:43.053Z,12.70
2022-11-27T05:44:15.637Z,17.00
2022-11-27T05:46:47.405Z,12.63
2022-11-27T05:49:19.194Z,8.97
2022-11-27T05:51:51.742Z,13.80
2022-11-27T05:54:23.772Z,12.67
2022-11-27T05:56:55.536Z,9.13
2022-11-27T05:59:27.343Z,12.60
2022-11-27T06:01:59.057Z,8.50
2022-11-27T06:04:34.630Z,9.03
2022-11-27T06:07:06.349Z,9.50
2022-11-27T06:09:38.456Z,10.17
2022-11-27T06:12:10.390Z,9.80
2022-11-27T06:14:42.346Z,12.07
2022-11-27T06:17:16.473Z,10.53
2022-11-27T06:19:48.572Z,14.83
2022-11-27T06:22:20.309Z,13.63
2022-11-27T06:24:51.999Z,12.40
2022-11-27T06:27:23.730Z,11.30
2022-11-27T06:29:55.442Z,8.50
2022-11-27T06:32:27.337Z,9.47
2022-11-27T06:34:59.021Z,14.60
2022-11-27T06:37:30.914Z,13.40
2022-11-27T06:40:03.551Z,11.37
2022-11-27T06:42:35.227Z,10.87
2022-11-27T06:45:07.501Z,9.30
2022-11-27T06:47:39.282Z,14.73
2022-11-27T06:50:11.254Z,9.77
2022-11-27T06:52:42.929Z,17.30
2022-11-27T06:55:14.600Z,11.40
2022-11-27T06:57:46.253Z,9.80
2022-11-27T07:00:19.136Z,10.17
2022-11-27T07:02:54.614Z,10.90
2022-11-27T07:05:26.405Z,9.10
2022-11-27T07:07:59.102Z,9.37
2022-11-27T07:10:35.073Z,9.60
2022-11-27T07:13:06.745Z,13.53
2022-11-27T07:15:38.520Z,8.50
2022-11-27T07:18:10.721Z,9.03
2022-11-27T07:20:42.481Z,9.02
2022-11-27T07:23:14.193Z,13.97
2022-11-27T07:25:45.865Z,8.87
2022-11-27T07:28:19.270Z,11.23
2022-11-27T07:30:55.745Z,9.50
2022-11-27T07:33:28.097Z,13.83
2022-11-27T07:36:03.648Z,9.80
2022-11-27T07:38:35.332Z,11.20
2022-11-27T07:41:07.889Z,14.10
2022-11-27T07:43:40.617Z,13.53
2022-11-27T07:46:21.983Z,12.93
2022-11-27T07:48:53.717Z,15.43
2022-11-27T07:51:25.391Z,16.47
2022-11-27T07:53:57.465Z,12.40
2022-11-27T07:56:30.445Z,11.23
2022-11-27T07:59:02.297Z,13.00
2022-11-27T08:01:34.042Z,11.20
2022-11-27T08:04:05.818Z,13.87
2022-11-27T08:06:37.571Z,13.80
2022-11-27T08:09:09.282Z,11.83
2022-11-27T08:11:41.134Z,12.53
2022-11-27T08:14:13.770Z,16.98
2022-11-27T08:16:45.515Z,16.10
2022-11-27T08:19:17.237Z,20.13
2022-11-27T08:21:49.041Z,14.37
2022-11-27T08:24:20.823Z,13.43
2022-11-27T08:26:52.711Z,11.00
2022-11-27T08:29:29.895Z,17.23
2022-11-27T08:32:05.694Z,14.90
2022-11-27T08:34:37.549Z,22.10
2022-11-27T08:37:09.673Z,30.37
2022-11-27T08:39:41.356Z,30.87
2022-11-27T08:42:13.179Z,38.07
2022-11-27T08:44:44.882Z,32.75
2022-11-27T08:47:16.984Z,29.23
2022-11-27T08:49:48.738Z,20.13
2022-11-27T08:52:21.240Z,15.90
2022-11-27T08:54:57.316Z,17.43
2022-11-27T08:57:29.655Z,17.10
2022-11-27T09:00:01.418Z,12.57
2022-11-27T09:02:34.314Z,11.33
2022-11-27T09:05:06.368Z,7.73
2022-11-27T09:07:38.173Z,8.57
2022-11-27T09:10:10.680Z,10.70
2022-11-27T09:12:44.488Z,7.23
2022-11-27T09:15:16.575Z,8.67
2022-11-27T09:17:48.313Z,7.50
2022-11-27T09:20:20.169Z,9.97
2022-11-27T09:22:51.949Z,8.00
2022-11-27T09:25:23.610Z,11.30
2022-11-27T09:27:55.356Z,11.53
2022-11-27T09:30:27.151Z,11.20
2022-11-27T09:32:58.866Z,8.47
2022-11-27T09:35:30.666Z,11.33
2022-11-27T09:38:02.394Z,11.43
2022-11-27T09:40:34.818Z,10.67
2022-11-27T09:43:09.897Z,8.07
2022-11-27T09:45:55.301Z,7.80
2022-11-27T09:48:37.480Z,8.10
2022-11-27T09:51:34.471Z,10.40
2022-11-27T09:54:20.478Z,9.77
2022-11-27T09:56:55.001Z,8.70
2022-11-27T09:59:36.165Z,10.80
2022-11-27T10:02:28.947Z,11.18
2022-11-27T10:05:20.234Z,8.37
2022-11-27T10:08:03.265Z,9.07
2022-11-27T10:10:50.488Z,7.43
2022-11-27T10:13:45.356Z,9.47
2022-11-27T10:16:44.503Z,8.50
2022-11-27T10:19:39.610Z,8.60
2022-11-27T10:22:37.550Z,7.50
2022-11-27T10:25:21.825Z,7.10
2022-11-27T10:28:24.700Z,7.20
2022-11-27T10:31:04.485Z,7.93
2022-11-27T10:33:43.407Z,7.10
2022-11-27T10:36:27.183Z,8.67
2022-11-27T10:39:01.056Z,7.47
2022-11-27T10:42:17.437Z,8.17
2022-11-27T10:44:59.018Z,8.17
2022-11-27T10:47:33.940Z,12.60
2022-11-27T10:50:17.555Z,6.63
2022-11-27T10:53:03.153Z,10.77
2022-11-27T10:55:44.317Z,9.67
2022-11-27T10:58:41.534Z,8.57
2022-11-27T11:01:18.861Z,8.83
2022-11-27T11:03:51.686Z,9.20
2022-11-27T11:06:26.166Z,9.63
2022-11-27T11:09:14.418Z,10.33
2022-11-27T11:11:46.170Z,8.97
2022-11-27T11:14:22.765Z,9.47
2022-11-27T11:16:55.115Z,8.03
2022-11-27T11:19:39.036Z,8.43
2022-11-27T11:22:16.326Z,7.73
2022-11-27T11:24:50.406Z,6.95
2022-11-27T11:27:32.391Z,7.93
2022-11-27T11:30:07.726Z,6.80
2022-11-27T11:32:40.743Z,7.23
2022-11-27T11:35:30.602Z,8.27
2022-11-27T11:38:15.906Z,7.33
2022-11-27T11:40:59.902Z,7.50
2022-11-27T11:43:37.046Z,9.90
2022-11-27T11:46:22.749Z,8.50
2022-11-27T11:48:56.086Z,8.50
2022-11-27T11:51:54.273Z,9.23
2022-11-27T11:54:39.404Z,8.27
2022-11-27T11:57:40.346Z,6.97
2022-11-27T12:00:16.956Z,6.30
2022-11-27T12:03:15.493Z,6.77
2022-11-27T12:06:11.376Z,6.80
2022-11-27T12:09:04.890Z,6.60
2022-11-27T12:12:19.673Z,6.00
2022-11-27T12:15:21.447Z,5.17
2022-11-27T12:18:00.977Z,4.80
2022-11-27T12:20:51.053Z,7.13
2022-11-27T12:23:36.956Z,5.43
2022-11-27T12:26:34.075Z,9.33
2022-11-27T12:29:39.609Z,5.30
2022-11-27T12:32:18.966Z,5.87
2022-11-27T12:34:59.345Z,6.23
2022-11-27T12:37:46.255Z,5.30
2022-11-27T12:40:36.521Z,6.47
2022-11-27T12:43:24.721Z,7.23
2022-11-27T12:46:17.644Z,5.27
2022-11-27T12:48:59.215Z,5.83
2022-11-27T12:51:47.291Z,5.90
2022-11-27T12:54:29.812Z,6.00
2022-11-27T12:57:10.075Z,5.60
2022-11-27T12:59:50.718Z,6.73
2022-11-27T13:02:31.712Z,5.93
2022-11-27T13:05:22.726Z,5.23
2022-11-27T13:08:01.173Z,5.70
2022-11-27T13:10:41.342Z,5.93
2022-11-27T13:13:29.073Z,5.90
2022-11-27T13:16:05.860Z,7.07
2022-11-27T13:18:41.471Z,6.37
2022-11-27T13:21:23.629Z,5.00
2022-11-27T13:23:55.575Z,6.67
2022-11-27T13:26:33.233Z,6.07
2022-11-27T13:29:27.145Z,6.10
2022-11-27T13:32:04.104Z,5.20
2022-11-27T13:34:44.757Z,6.23
2022-11-27T13:37:27.668Z,5.90
2022-11-27T13:40:21.728Z,7.60
2022-11-27T13:42:56.408Z,7.60
2022-11-27T13:45:31.260Z,5.80
2022-11-27T13:48:18.260Z,5.90
2022-11-27T13:50:50.158Z,7.23
2022-11-27T13:53:34.728Z,5.10
2022-11-27T13:56:07.945Z,5.57
2022-11-27T13:58:41.861Z,6.63
2022-11-27T14:01:18.325Z,5.30
2022-11-27T14:03:50.733Z,5.20
2022-11-27T14:06:31.594Z,6.60
2022-11-27T14:09:06.040Z,7.60
2022-11-27T14:11:45.739Z,7.20
2022-11-27T14:14:21.898Z,6.83
2022-11-27T14:17:04.846Z,8.20
2022-11-27T14:19:44.386Z,9.63
2022-11-27T14:23:10.422Z,9.37
2022-11-27T14:25:38.604Z,9.27
2022-11-27T14:28:21.698Z,10.17
2022-11-27T14:30:55.351Z,15.07
2022-11-27T14:33:31.376Z,10.03
2022-11-27T14:36:06.040Z,6.60
2022-11-27T14:38:37.723Z,5.80
2022-11-27T14:41:15.118Z,5.13
2022-11-27T14:43:46.993Z,5.13
2022-11-27T14:46:21.882Z,6.70
2022-11-27T14:48:56.013Z,5.73
2022-11-27T14:51:28.882Z,7.10
2022-11-27T14:54:09.594Z,7.73
2022-11-27T14:56:44.162Z,8.25
2022-11-27T14:59:18.868Z,8.80
2022-11-27T15:02:12.612Z,11.33
2022-11-27T15:04:45.832Z,10.07
2022-11-27T15:07:21.741Z,7.93
2022-11-27T15:09:56.493Z,7.93
2022-11-27T15:12:35.925Z,8.30
2022-11-27T15:15:18.072Z,8.00
2022-11-27T15:17:54.246Z,7.97
2022-11-27T15:20:32.210Z,12.20
2022-11-27T15:23:14.585Z,9.87
2022-11-27T15:25:50.330Z,9.10
2022-11-27T15:28:50.753Z,5.47
2022-11-27T15:31:25.348Z,5.67
2022-11-27T15:34:06.325Z,7.30
2022-11-27T15:36:47.531Z,5.90
2022-11-27T15:39:36.105Z,6.47
2022-11-27T15:42:17.503Z,7.20
2022-11-27T15:44:53.770Z,7.53
2022-11-27T15:47:37.250Z,11.07
2022-11-27T15:50:15.429Z,8.82
2022-11-27T15:52:48.310Z,8.60
2022-11-27T15:55:20.191Z,7.50
2022-11-27T15:57:51.952Z,6.07
2022-11-27T16:00:23.763Z,6.07
2022-11-27T16:02:55.590Z,5.27
2022-11-27T16:05:27.333Z,10.53
2022-11-27T16:07:59.240Z,7.17
2022-11-27T16:10:31.049Z,15.23
2022-11-27T16:13:02.798Z,10.25
2022-11-27T16:15:34.809Z,12.73
2022-11-27T16:18:07.221Z,12.80
2022-11-27T16:20:39.034Z,13.80
2022-11-27T16:23:10.768Z,11.67
2022-11-27T16:25:42.559Z,9.07
2022-11-27T16:28:14.330Z,12.87
2022-11-27T16:30:46.041Z,13.00
2022-11-27T16:33:19.815Z,14.50
2022-11-27T16:35:52.074Z,16.70
2022-11-27T16:38:23.819Z,13.75
2022-11-27T16:41:01.064Z,19.47
2022-11-27T16:43:41.029Z,20.13
2022-11-27T16:46:15.495Z,27.13
2022-11-27T16:48:48.711Z,27.43
2022-11-27T16:51:29.005Z,31.73
2022-11-27T16:54:04.114Z,34.57
2022-11-27T16:56:38.348Z,21.53
2022-11-27T16:59:12.759Z,21.93
2022-11-27T17:01:44.787Z,20.13
2022-11-27T17:04:19.494Z,17.67
2022-11-27T17:06:51.405Z,22.57
2022-11-27T17:09:25.174Z,16.80
2022-11-27T17:11:57.031Z,18.47
2022-11-27T17:14:28.836Z,20.13
2022-11-27T17:17:00.671Z,23.40
2022-11-27T17:19:32.476Z,26.53
2022-11-27T17:22:04.241Z,24.17
2022-11-27T17:24:36.158Z,21.77
2022-11-27T17:27:07.898Z,21.47
2022-11-27T17:29:39.806Z,16.87
2022-11-27T17:32:12.949Z,16.27
2022-11-27T17:34:45.479Z,18.00
2022-11-27T17:37:17.232Z,19.07
2022-11-27T17:39:48.987Z,19.70
2022-11-27T17:42:22.792Z,18.00
2022-11-27T17:44:56.144Z,18.30
2022-11-27T17:47:27.922Z,16.30
2022-11-27T17:50:00.073Z,16.97
2022-11-27T17:52:31.891Z,16.43
2022-11-27T17:55:04.296Z,13.17
2022-11-27T17:57:36.056Z,13.10
2022-11-27T18:00:08.689Z,12.30
2022-11-27T18:02:40.522Z,13.73
2022-11-27T18:05:12.354Z,15.87
2022-11-27T18:07:44.216Z,21.50
2022-11-27T18:10:18.472Z,16.20
2022-11-27T18:12:50.152Z,17.90
2022-11-27T18:15:21.783Z,20.33
2022-11-27T18:17:54.033Z,16.87
2022-11-27T18:20:26.473Z,15.00
2022-11-27T18:22:58.463Z,18.70
2022-11-27T18:25:30.466Z,17.13
2022-11-27T18:28:03.149Z,22.70
2022-11-27T18:30:35.030Z,24.63
2022-11-27T18:33:06.724Z,28.87
2022-11-27T18:35:42.486Z,27.23
2022-11-27T18:38:14.287Z,26.43
2022-11-27T18:40:46.290Z,25.03
2022-11-27T18:43:17.974Z,22.13
2022-11-27T18:45:49.937Z,24.17
2022-11-27T18:48:21.682Z,22.60
2022-11-27T18:51:00.658Z,60.87
2022-11-27T18:53:32.920Z,37.67
2022-11-27T18:56:13.285Z,25.27
2022-11-27T18:58:46.605Z,25.00
2022-11-27T19:01:22.060Z,20.73
2022-11-27T19:03:54.638Z,40.60
2022-11-27T19:06:26.742Z,29.77
2022-11-27T19:08:59.372Z,21.33
2022-11-27T19:11:32.689Z,22.47
2022-11-27T19:14:05.901Z,28.33
2022-11-27T19:16:43.714Z,22.27
2022-11-27T19:22:10.960Z,24.25
2022-11-27T19:24:42.807Z,28.37
2022-11-27T19:27:14.510Z,89.97
2022-11-27T19:29:46.313Z,22.17
2022-11-27T19:32:18.128Z,51.97
2022-11-27T19:34:50.833Z,28.42
2022-11-27T19:37:34.153Z,81.90
2022-11-27T19:40:08.390Z,72.23
2022-11-27T19:42:40.166Z,45.27
2022-11-27T19:45:12.193Z,30.75
2022-11-27T19:47:43.869Z,38.90
2022-11-27T19:50:15.574Z,26.10
2022-11-27T19:52:47.315Z,23.67
2022-11-27T19:55:19.190Z,25.07
2022-11-27T19:57:50.857Z,20.33
2022-11-27T20:00:22.639Z,19.10
2022-11-27T20:02:54.372Z,18.53
2022-11-27T20:05:26.170Z,20.07
2022-11-27T20:07:59.494Z,16.93
2022-11-27T20:10:31.260Z,23.43
2022-11-27T20:13:03.181Z,21.53
2022-11-27T20:15:35.225Z,17.70
2022-11-27T20:18:06.970Z,19.37
2022-11-27T20:20:38.874Z,18.67
2022-11-27T20:23:10.650Z,18.87
2022-11-27T20:25:42.909Z,23.07
2022-11-27T20:28:14.705Z,25.50
2022-11-27T20:30:46.445Z,22.47
2022-11-27T20:33:19.643Z,18.07
2022-11-27T20:35:51.553Z,20.63
2022-11-27T20:38:23.665Z,17.07
2022-11-27T20:40:55.543Z,16.27
2022-11-27T20:43:27.218Z,20.47
2022-11-27T20:46:01.106Z,19.80
2022-11-27T20:48:33.052Z,18.77
2022-11-27T20:51:10.441Z,16.93
2022-11-27T20:53:43.761Z,22.90
2022-11-27T20:56:18.821Z,32.00
2022-11-27T20:58:50.630Z,28.80
2022-11-27T21:01:31.194Z,23.20
2022-11-27T21:04:10.309Z,20.90
2022-11-27T21:06:44.045Z,17.97
2022-11-27T21:09:16.528Z,16.30
2022-11-27T21:11:48.384Z,21.70
2022-11-27T21:14:20.304Z,19.87
2022-11-27T21:16:52.179Z,17.10
2022-11-27T21:19:25.950Z,15.83
2022-11-27T21:21:57.730Z,14.23
2022-11-27T21:24:29.824Z,16.97
2022-11-27T21:27:01.719Z,14.77
2022-11-27T21:29:33.644Z,16.40
2022-11-27T21:32:05.441Z,15.63
2022-11-27T21:34:39.358Z,15.13
2022-11-27T21:37:11.207Z,16.10
2022-11-27T21:39:44.638Z,17.00
2022-11-27T21:42:16.327Z,16.60
2022-11-27T21:44:48.220Z,14.17
2022-11-27T21:47:19.964Z,16.90
2022-11-27T21:49:51.734Z,16.60
2022-11-27T21:52:23.568Z,19.27
2022-11-27T21:54:55.349Z,17.00
2022-11-27T21:57:27.159Z,19.70
2022-11-27T21:59:58.816Z,14.07
2022-11-27T22:02:30.602Z,54.83
2022-11-27T22:05:02.378Z,53.47
2022-11-27T22:07:35.151Z,29.40
2022-11-27T22:10:10.533Z,20.60
2022-11-27T22:12:42.260Z,16.87
2022-11-27T22:15:14.046Z,15.77
2022-11-27T22:17:45.831Z,13.40
2022-11-27T22:20:17.633Z,17.27
2022-11-27T22:22:49.353Z,15.03
2022-11-27T22:25:21.033Z,16.13
2022-11-27T22:27:52.907Z,18.80
2022-11-27T22:30:25.771Z,15.27
2022-11-27T22:32:57.551Z,22.20
2022-11-27T22:35:29.388Z,24.60
2022-11-27T22:38:01.063Z,26.67
2022-11-27T22:40:32.748Z,28.23
2022-11-27T22:43:04.582Z,24.10
2022-11-27T22:45:39.771Z,35.43
2022-11-27T22:48:11.609Z,23.50
2022-11-27T22:50:43.332Z,16.43
2022-11-27T22:53:15.016Z,16.87
2022-11-27T22:55:46.771Z,16.10
2022-11-27T22:58:19.571Z,16.47
2022-11-27T23:00:58.124Z,16.40
2022-11-27T23:03:31.334Z,16.10
2022-11-27T23:06:04.038Z,22.50
2022-11-27T23:08:35.760Z,17.30
2022-11-27T23:11:09.181Z,16.97
2022-11-27T23:13:46.320Z,24.67
2022-11-27T23:16:21.886Z,20.03
2022-11-27T23:18:53.676Z,22.37
2022-11-27T23:21:26.697Z,17.97
2022-11-27T23:23:58.567Z,17.43
2022-11-27T23:26:30.337Z,17.00
2022-11-27T23:29:02.823Z,22.27
2022-11-27T23:31:36.132Z,18.27
2022-11-27T23:34:13.397Z,13.63
2022-11-27T23:36:45.243Z,17.80
2022-11-27T23:39:17.070Z,14.80
2022-11-27T23:41:49.630Z,18.93
2022-11-27T23:44:21.677Z,20.60
2022-11-27T23:46:53.354Z,19.70
2022-11-27T23:49:25.010Z,18.07
2022-11-27T23:51:58.251Z,17.30
2022-11-27T23:54:30.005Z,15.87
2022-11-27T23:57:01.737Z,17.83
2022-11-27T23:59:33.451Z,15.67
